createdAt,value
2022-11-29T00:01:25.509Z,109.25
2022-11-29T00:03:52.243Z,103.97
2022-11-29T00:06:23.318Z,95.05
2022-11-29T00:08:50.444Z,100.97
2022-11-29T00:11:38.899Z,118.22
2022-11-29T00:14:06.290Z,126.90
2022-11-29T00:16:32.817Z,142.25
2022-11-29T00:18:59.315Z,159.57
2022-11-29T00:21:25.894Z,153.60
2022-11-29T00:23:52.610Z,163.57
2022-11-29T00:26:19.145Z,158.43
2022-11-29T00:28:45.606Z,77.93
2022-11-29T00:31:19.721Z,110.32
2022-11-29T00:33:46.247Z,78.68
2022-11-29T00:36:12.803Z,72.72
2022-11-29T00:38:39.399Z,77.68
2022-11-29T00:41:06.127Z,83.82
2022-11-29T00:43:32.678Z,94.90
2022-11-29T00:45:59.216Z,124.45
2022-11-29T00:48:25.699Z,151.45
2022-11-29T00:50:52.174Z,157.85
2022-11-29T00:53:18.632Z,218.50
2022-11-29T00:55:47.321Z,189.88
2022-11-29T00:58:14.031Z,1999.90
2022-11-29T01:00:40.610Z,192.73
2022-11-29T01:03:07.289Z,1999.90
2022-11-29T01:05:33.760Z,1999.90
2022-11-29T01:08:00.456Z,1999.90
2022-11-29T01:10:26.958Z,1999.90
2022-11-29T01:12:53.830Z,1999.90
2022-11-29T01:15:20.276Z,1999.90
2022-11-29T01:17:46.822Z,1999.90
2022-11-29T01:20:13.472Z,1999.90
2022-11-29T01:22:40.333Z,1999.90
2022-11-29T01:25:07.382Z,1999.90
2022-11-29T01:27:34.508Z,1999.90
2022-11-29T01:30:00.972Z,1999.90
2022-11-29T01:32:27.465Z,1999.90
2022-11-29T01:34:53.939Z,1999.90
2022-11-29T01:37:20.405Z,1999.90
2022-11-29T01:39:46.900Z,1999.90
2022-11-29T01:42:13.654Z,1999.90
2022-11-29T01:44:39.966Z,1999.90
2022-11-29T01:47:06.443Z,1999.90
2022-11-29T01:49:36.174Z,1999.90
2022-11-29T01:52:08.147Z,1999.90
2022-11-29T01:54:36.809Z,1999.90
2022-11-29T01:57:04.488Z,1999.90
2022-11-29T01:59:30.955Z,1999.90
2022-11-29T02:02:00.969Z,1999.90
2022-11-29T02:04:27.430Z,1999.90
2022-11-29T02:06:54.033Z,1999.90
2022-11-29T02:09:22.198Z,1999.90
2022-11-29T02:12:07.906Z,1999.90
2022-11-29T02:14:49.999Z,1999.90
2022-11-29T02:17:39.769Z,1999.90
2022-11-29T02:20:23.082Z,1999.90
2022-11-29T02:23:28.468Z,1999.90
2022-11-29T02:26:30.454Z,1999.90
2022-11-29T02:29:18.257Z,1999.90
2022-11-29T02:32:18.574Z,1999.90
2022-11-29T02:37:38.481Z,1999.90
2022-11-29T02:40:14.387Z,1999.90
2022-11-29T02:43:10.941Z,1999.90
2022-11-29T02:46:05.032Z,1999.90
2022-11-29T02:48:53.333Z,1999.90
2022-11-29T02:51:39.601Z,1999.90
2022-11-29T02:54:16.744Z,1999.90
2022-11-29T02:56:54.610Z,1999.90
2022-11-29T02:59:48.486Z,1999.90
2022-11-29T03:02:26.725Z,1999.90
2022-11-29T03:05:30.855Z,1999.90
2022-11-29T03:08:06.321Z,1999.90
2022-11-29T03:11:10.245Z,1999.90
2022-11-29T03:13:58.563Z,1999.90
2022-11-29T03:16:43.909Z,1999.90
2022-11-29T03:19:34.986Z,1999.90
2022-11-29T03:22:14.103Z,1999.90
2022-11-29T03:25:03.665Z,1999.90
2022-11-29T03:27:45.898Z,1999.90
2022-11-29T03:30:14.965Z,1999.90
2022-11-29T03:32:59.600Z,1999.90
2022-11-29T03:35:42.990Z,1999.90
2022-11-29T03:38:25.664Z,1999.90
2022-11-29T03:41:17.224Z,1999.90
2022-11-29T03:44:14.705Z,1999.90
2022-11-29T03:46:55.585Z,1999.90
2022-11-29T03:49:32.284Z,1999.90
2022-11-29T03:52:01.235Z,1999.90
2022-11-29T03:55:05.220Z,1999.90
2022-11-29T03:57:38.345Z,1999.90
2022-11-29T04:00:09.505Z,1999.90
2022-11-29T04:02:48.077Z,1999.90
2022-11-29T04:05:46.325Z,1999.90
2022-11-29T04:09:20.973Z,1999.90
2022-11-29T04:12:14.895Z,1999.90
2022-11-29T04:15:21.386Z,1999.90
2022-11-29T04:18:23.513Z,1999.90
2022-11-29T04:21:14.761Z,1999.90
2022-11-29T04:24:04.061Z,1999.90
2022-11-29T04:26:55.301Z,1999.90
2022-11-29T04:29:41.350Z,1999.90
2022-11-29T04:32:13.719Z,1999.90
2022-11-29T04:34:55.378Z,1999.90
2022-11-29T04:37:30.952Z,1999.90
2022-11-29T04:40:17.968Z,1999.90
2022-11-29T04:43:09.348Z,1999.90
2022-11-29T04:45:47.938Z,1999.90
2022-11-29T04:48:32.592Z,1999.90
2022-11-29T04:51:30.986Z,1999.90
2022-11-29T04:54:47.996Z,1999.90
2022-11-29T04:57:37.268Z,1999.90
2022-11-29T05:00:11.442Z,1999.90
2022-11-29T05:02:57.298Z,1999.90
2022-11-29T05:05:39.250Z,1999.90
2022-11-29T05:08:32.847Z,1999.90
2022-11-29T05:11:23.450Z,1999.90
2022-11-29T05:14:05.843Z,1999.90
2022-11-29T05:16:50.998Z,1999.90
2022-11-29T05:19:42.345Z,1999.90
2022-11-29T05:22:30.777Z,1999.90
2022-11-29T05:25:44.320Z,1999.90
2022-11-29T05:28:26.351Z,1999.90
2022-11-29T05:31:18.830Z,1999.90
2022-11-29T05:33:45.204Z,1999.90
2022-11-29T05:36:20.218Z,1999.90
2022-11-29T05:39:10.749Z,1999.90
2022-11-29T05:41:57.072Z,1999.90
2022-11-29T05:44:37.201Z,1999.90
2022-11-29T05:47:10.039Z,1999.90
2022-11-29T05:50:10.249Z,1999.90
2022-11-29T05:53:02.094Z,1999.90
2022-11-29T05:55:59.147Z,1999.90
2022-11-29T05:58:30.970Z,1999.90
2022-11-29T06:01:21.949Z,1999.90
2022-11-29T06:04:14.719Z,1999.90
2022-11-29T06:06:48.108Z,1999.90
2022-11-29T06:09:25.502Z,1999.90
2022-11-29T06:12:06.758Z,1999.90
2022-11-29T06:14:39.154Z,1999.90
2022-11-29T06:17:19.112Z,1999.90
2022-11-29T06:19:59.914Z,1999.90
2022-11-29T06:23:01.916Z,1999.90
2022-11-29T06:26:07.241Z,1999.90
2022-11-29T06:29:02.758Z,1999.90
2022-11-29T06:31:39.812Z,1999.90
2022-11-29T06:34:09.328Z,1999.90
2022-11-29T06:36:52.227Z,1999.90
2022-11-29T06:39:18.792Z,1999.90
2022-11-29T06:41:45.278Z,1999.90
2022-11-29T06:44:11.947Z,1999.90
2022-11-29T06:46:49.567Z,1999.90
2022-11-29T06:49:26.947Z,1999.90
2022-11-29T06:52:10.636Z,1999.90
2022-11-29T06:55:05.377Z,1999.90
2022-11-29T06:57:59.626Z,1999.90
2022-11-29T07:00:27.362Z,1999.90
2022-11-29T07:03:19.476Z,1999.90
2022-11-29T07:05:46.737Z,1999.90
2022-11-29T07:08:18.847Z,1999.90
2022-11-29T07:10:49.944Z,1999.90
2022-11-29T07:13:19.628Z,1999.90
2022-11-29T07:15:52.157Z,1999.90
2022-11-29T07:18:28.138Z,1999.90
2022-11-29T07:21:30.267Z,1999.90
2022-11-29T07:24:02.004Z,1999.90
2022-11-29T07:26:52.858Z,1999.90
2022-11-29T07:29:30.902Z,1999.90
2022-11-29T07:32:16.478Z,1999.90
2022-11-29T07:34:52.078Z,1999.90
2022-11-29T07:37:57.737Z,1999.90
2022-11-29T07:40:37.715Z,1999.90
2022-11-29T07:43:17.559Z,1999.90
2022-11-29T07:45:45.740Z,1999.90
2022-11-29T07:48:12.385Z,1999.90
2022-11-29T07:50:39.482Z,1999.90
2022-11-29T07:53:05.990Z,1999.90
2022-11-29T07:55:32.607Z,1999.90
2022-11-29T07:57:59.084Z,1999.90
2022-11-29T08:00:25.586Z,1999.90
2022-11-29T08:02:52.088Z,1999.90
2022-11-29T08:05:18.614Z,1999.90
2022-11-29T08:07:46.338Z,1999.90
2022-11-29T08:10:14.533Z,1999.90
2022-11-29T08:12:45.798Z,1999.90
2022-11-29T08:15:12.436Z,1999.90
2022-11-29T08:17:39.203Z,1999.90
2022-11-29T08:20:06.312Z,1999.90
2022-11-29T08:22:32.775Z,1999.90
2022-11-29T08:24:59.922Z,1999.90
2022-11-29T08:27:26.427Z,1999.90
2022-11-29T08:29:52.915Z,1999.90
2022-11-29T08:32:19.424Z,1999.90
2022-11-29T08:34:46.207Z,1999.90
2022-11-29T08:37:12.940Z,1999.90
2022-11-29T08:39:39.396Z,1999.90
2022-11-29T08:42:05.877Z,1999.90
2022-11-29T08:44:32.364Z,1999.90
2022-11-29T08:47:17.473Z,1999.90
2022-11-29T08:50:01.825Z,1999.90
2022-11-29T08:52:54.728Z,1999.90
2022-11-29T08:55:22.044Z,1999.90
2022-11-29T08:57:49.342Z,1999.90
2022-11-29T09:00:16.115Z,1999.90
2022-11-29T09:02:42.656Z,1999.90
2022-11-29T09:05:09.979Z,1999.90
2022-11-29T09:07:36.762Z,1999.90
2022-11-29T09:10:06.008Z,1999.90
2022-11-29T09:12:35.679Z,1999.90
2022-11-29T09:15:04.279Z,1999.90
2022-11-29T09:17:30.876Z,1999.90
2022-11-29T09:19:57.390Z,1999.90
2022-11-29T09:22:23.867Z,1999.90
2022-11-29T09:24:50.450Z,1999.90
2022-11-29T09:27:17.202Z,1999.90
2022-11-29T09:29:43.653Z,1999.90
2022-11-29T09:32:10.164Z,1999.90
2022-11-29T09:34:36.806Z,1999.90
2022-11-29T09:37:05.076Z,1999.90
2022-11-29T09:39:31.823Z,1999.90
2022-11-29T09:42:12.008Z,1999.90
2022-11-29T09:44:48.019Z,1999.90
2022-11-29T09:47:18.921Z,1999.90
2022-11-29T09:49:55.733Z,1999.90
2022-11-29T09:52:32.511Z,1999.90
2022-11-29T09:55:02.557Z,1999.90
2022-11-29T09:57:29.726Z,1999.90
2022-11-29T10:00:03.317Z,1999.90
2022-11-29T10:02:45.300Z,1999.90
2022-11-29T10:05:25.149Z,1999.90
2022-11-29T10:08:01.187Z,1999.90
2022-11-29T10:10:40.816Z,1999.90
2022-11-29T10:13:10.491Z,1999.90
2022-11-29T10:15:41.121Z,1999.90
2022-11-29T10:18:19.017Z,1999.90
2022-11-29T10:20:49.002Z,1999.90
2022-11-29T10:23:21.608Z,1999.90
2022-11-29T10:25:49.526Z,1999.90
2022-11-29T10:28:18.725Z,1999.90
2022-11-29T10:30:45.390Z,1999.90
2022-11-29T10:33:18.423Z,1999.90
2022-11-29T10:35:45.347Z,1999.90
2022-11-29T10:38:30.384Z,1999.90
2022-11-29T10:41:04.437Z,1999.90
2022-11-29T10:43:31.064Z,1999.90
2022-11-29T10:45:58.676Z,1999.90
2022-11-29T10:48:27.320Z,1999.90
2022-11-29T10:50:54.105Z,1999.90
2022-11-29T10:53:31.528Z,1999.90
2022-11-29T10:56:19.951Z,1999.90
2022-11-29T10:59:05.108Z,1999.90
2022-11-29T11:01:32.482Z,1999.90
2022-11-29T11:04:00.170Z,1999.90
2022-11-29T11:06:27.921Z,1999.90
2022-11-29T11:09:11.347Z,1999.90
2022-11-29T11:11:38.426Z,1999.90
2022-11-29T11:14:06.767Z,1999.90
2022-11-29T11:16:37.320Z,1999.90
2022-11-29T11:19:32.758Z,1999.90
2022-11-29T11:22:02.758Z,1999.90
2022-11-29T11:24:31.305Z,1999.90
2022-11-29T11:26:57.945Z,1999.90
2022-11-29T11:29:27.155Z,1999.90
2022-11-29T11:31:57.868Z,54.90
2022-11-29T11:34:36.998Z,1999.90
2022-11-29T11:37:15.938Z,291.55
2022-11-29T11:39:43.082Z,39.33
2022-11-29T11:42:32.859Z,28.60
2022-11-29T11:44:59.529Z,57.85
2022-11-29T11:47:29.974Z,264.02
2022-11-29T11:50:02.507Z,64.97
2022-11-29T11:52:52.445Z,39.45
2022-11-29T11:55:21.870Z,48.17
2022-11-29T11:57:57.751Z,45.63
2022-11-29T12:01:03.374Z,70.05
2022-11-29T12:04:14.167Z,213.57
2022-11-29T12:06:46.515Z,120.10
2022-11-29T12:09:22.027Z,113.13
2022-11-29T12:12:00.242Z,250.45
2022-11-29T12:14:41.483Z,240.02
2022-11-29T12:17:26.920Z,298.45
2022-11-29T12:20:21.483Z,227.73
2022-11-29T12:23:10.003Z,68.10
2022-11-29T12:25:56.526Z,77.22
2022-11-29T12:28:44.999Z,64.65
2022-11-29T12:31:48.495Z,89.00
2022-11-29T12:34:36.953Z,98.13
2022-11-29T12:37:08.846Z,74.00
2022-11-29T12:39:47.417Z,105.43
2022-11-29T12:42:26.107Z,110.03
2022-11-29T12:45:16.673Z,88.22
2022-11-29T12:48:05.111Z,71.25
2022-11-29T12:50:34.234Z,69.75
2022-11-29T12:53:06.875Z,59.53
2022-11-29T12:55:33.231Z,55.75
2022-11-29T12:58:10.890Z,57.90
2022-11-29T13:00:51.686Z,53.92
2022-11-29T13:03:28.899Z,67.65
2022-11-29T13:06:07.735Z,58.80
2022-11-29T13:08:46.382Z,51.15
2022-11-29T13:11:25.401Z,50.13
2022-11-29T13:14:08.227Z,50.03
2022-11-29T13:17:27.984Z,55.50
2022-11-29T13:19:56.396Z,51.25
2022-11-29T13:22:43.749Z,52.38
2022-11-29T13:25:40.346Z,52.42
2022-11-29T13:28:35.409Z,68.20
2022-11-29T13:31:04.617Z,103.18
2022-11-29T13:33:54.326Z,105.85
2022-11-29T13:37:08.973Z,150.73
2022-11-29T13:40:06.636Z,124.55
2022-11-29T13:42:55.047Z,139.10
2022-11-29T13:45:28.391Z,154.60
2022-11-29T13:47:56.467Z,132.10
2022-11-29T13:50:44.823Z,75.65
2022-11-29T13:53:17.185Z,65.75
2022-11-29T13:55:59.823Z,54.72
2022-11-29T13:58:29.212Z,60.90
2022-11-29T14:01:08.726Z,81.83
2022-11-29T14:03:45.340Z,57.70
2022-11-29T14:06:13.861Z,59.38
2022-11-29T14:09:25.206Z,55.53
2022-11-29T14:12:28.870Z,46.30
2022-11-29T14:14:58.579Z,50.47
2022-11-29T14:17:54.544Z,47.72
2022-11-29T14:20:24.746Z,42.38
2022-11-29T14:23:06.583Z,47.63
2022-11-29T14:25:51.513Z,90.65
2022-11-29T14:28:18.463Z,139.20
2022-11-29T14:30:44.750Z,90.25
2022-11-29T14:33:22.233Z,93.82
2022-11-29T14:35:49.689Z,99.25
2022-11-29T14:38:19.917Z,105.80
2022-11-29T14:40:52.088Z,106.30
2022-11-29T14:43:33.349Z,78.38
2022-11-29T14:46:29.445Z,65.45
2022-11-29T14:48:59.352Z,58.00
2022-11-29T14:51:27.817Z,49.00
2022-11-29T14:54:11.557Z,62.03
2022-11-29T14:56:42.250Z,64.75
2022-11-29T14:59:50.774Z,80.40
2022-11-29T15:02:20.153Z,67.07
2022-11-29T15:04:48.276Z,53.73
2022-11-29T15:07:16.867Z,64.35
2022-11-29T15:09:43.407Z,69.70
2022-11-29T15:12:12.622Z,65.05
2022-11-29T15:14:57.936Z,48.92
2022-11-29T15:17:30.098Z,49.15
2022-11-29T15:20:15.367Z,51.72
2022-11-29T15:22:52.252Z,50.17
2022-11-29T15:25:21.004Z,53.08
2022-11-29T15:28:00.835Z,50.72
2022-11-29T15:30:39.008Z,96.75
2022-11-29T15:33:07.725Z,37.67
2022-11-29T15:35:34.901Z,49.65
2022-11-29T15:38:02.067Z,48.35
2022-11-29T15:40:37.321Z,38.70
2022-11-29T15:43:25.747Z,37.28
2022-11-29T15:45:54.703Z,46.60
2022-11-29T15:48:32.100Z,43.90
2022-11-29T15:51:06.052Z,41.83
2022-11-29T15:54:12.046Z,41.10
2022-11-29T15:56:49.312Z,39.10
2022-11-29T15:59:49.409Z,41.88
2022-11-29T16:02:16.106Z,43.20
2022-11-29T16:04:46.765Z,38.20
2022-11-29T16:07:14.235Z,44.35
2022-11-29T16:09:46.271Z,46.58
2022-11-29T16:12:14.517Z,45.55
2022-11-29T16:14:55.616Z,52.60
2022-11-29T16:17:26.640Z,56.60
2022-11-29T16:20:19.458Z,50.83
2022-11-29T16:22:46.205Z,58.90
2022-11-29T16:25:17.850Z,63.03
2022-11-29T16:27:45.718Z,57.75
2022-11-29T16:30:25.600Z,53.53
2022-11-29T16:32:57.750Z,55.78
2022-11-29T16:35:31.699Z,49.90
2022-11-29T16:37:58.138Z,59.00
2022-11-29T16:40:26.411Z,60.35
2022-11-29T16:43:18.094Z,48.13
2022-11-29T16:45:44.590Z,61.45
2022-11-29T16:48:24.506Z,77.68
2022-11-29T16:51:09.538Z,56.45
2022-11-29T16:53:37.565Z,137.20
2022-11-29T16:56:13.622Z,61.78
2022-11-29T16:58:43.227Z,69.88
2022-11-29T17:01:28.020Z,66.40
2022-11-29T17:03:59.256Z,133.80
2022-11-29T17:06:26.061Z,71.28
2022-11-29T17:08:53.128Z,78.30
2022-11-29T17:11:19.570Z,73.50
2022-11-29T17:13:47.051Z,143.23
2022-11-29T17:16:14.526Z,106.05
2022-11-29T17:18:41.980Z,120.55
2022-11-29T17:21:18.832Z,186.20
2022-11-29T17:23:45.621Z,111.60
2022-11-29T17:26:12.034Z,163.82
2022-11-29T17:28:40.278Z,111.60
2022-11-29T17:31:14.993Z,1999.90
2022-11-29T17:33:41.567Z,1999.90
2022-11-29T17:36:09.606Z,1999.90
2022-11-29T17:38:36.041Z,1999.90
2022-11-29T17:41:07.182Z,1999.90
2022-11-29T17:43:35.038Z,1999.90
2022-11-29T17:46:08.648Z,1999.90
2022-11-29T17:48:35.126Z,1999.90
2022-11-29T17:51:01.708Z,1999.90
2022-11-29T17:53:28.477Z,1999.90
2022-11-29T17:55:55.098Z,1999.90
2022-11-29T17:58:21.780Z,1999.90
2022-11-29T18:00:48.224Z,1999.90
2022-11-29T18:03:14.888Z,1999.90
2022-11-29T18:05:41.395Z,1999.90
2022-11-29T18:08:11.549Z,1999.90
2022-11-29T18:10:38.154Z,1999.90
2022-11-29T18:13:04.718Z,1999.90
2022-11-29T18:15:32.573Z,1999.90
2022-11-29T18:17:59.385Z,1999.90
2022-11-29T18:20:26.163Z,1999.90
2022-11-29T18:22:53.405Z,1999.90
2022-11-29T18:25:38.021Z,1999.90
2022-11-29T18:28:05.480Z,1999.90
2022-11-29T18:30:32.293Z,1999.90
2022-11-29T18:32:59.982Z,1999.90
2022-11-29T18:35:28.111Z,1999.90
2022-11-29T18:38:14.737Z,1999.90
2022-11-29T18:40:42.528Z,1999.90
2022-11-29T18:43:09.134Z,1999.90
2022-11-29T18:45:39.097Z,1999.90
2022-11-29T18:48:11.616Z,1999.90
2022-11-29T18:50:38.135Z,1999.90
2022-11-29T18:53:09.497Z,1999.90
2022-11-29T18:55:36.012Z,1999.90
2022-11-29T18:58:02.884Z,1999.90
2022-11-29T19:00:29.345Z,92.93
2022-11-29T19:02:56.267Z,73.13
2022-11-29T19:05:22.811Z,121.35
2022-11-29T19:07:49.340Z,46.65
2022-11-29T19:10:15.843Z,57.47
2022-11-29T19:12:42.315Z,58.20
2022-11-29T19:15:09.658Z,59.47
2022-11-29T19:17:41.675Z,80.30
2022-11-29T19:20:10.412Z,62.25
2022-11-29T19:22:36.901Z,85.88
2022-11-29T19:25:03.388Z,59.05
2022-11-29T19:27:29.872Z,84.75
2022-11-29T19:29:56.691Z,112.15
2022-11-29T19:32:23.509Z,80.53
2022-11-29T19:34:50.038Z,76.60
2022-11-29T19:37:16.525Z,75.32
2022-11-29T19:39:43.270Z,73.97
2022-11-29T19:42:09.885Z,55.08
2022-11-29T19:45:01.182Z,458.15
2022-11-29T19:47:22.880Z,466.15
2022-11-29T19:49:49.600Z,296.58
2022-11-29T19:52:16.378Z,161.40
2022-11-29T19:54:42.846Z,143.07
2022-11-29T19:57:09.324Z,154.32
2022-11-29T19:59:35.804Z,118.10
2022-11-29T20:02:02.555Z,1999.90
2022-11-29T20:04:29.095Z,1507.15
2022-11-29T20:06:55.655Z,1999.90
2022-11-29T20:09:22.485Z,1999.90
2022-11-29T20:11:48.946Z,1999.90
2022-11-29T20:14:15.453Z,1999.90
2022-11-29T20:16:42.069Z,1999.90
2022-11-29T20:19:12.989Z,1999.90
2022-11-29T20:21:44.683Z,1999.90
2022-11-29T20:24:11.632Z,1999.90
2022-11-29T20:26:38.791Z,1999.90
2022-11-29T20:29:06.070Z,1999.90
2022-11-29T20:31:33.197Z,1999.90
2022-11-29T20:33:59.827Z,1999.90
2022-11-29T20:36:50.931Z,1999.90
2022-11-29T20:39:36.200Z,1999.90
2022-11-29T20:42:24.462Z,1999.90
2022-11-29T20:45:04.583Z,1999.90
2022-11-29T20:47:51.861Z,1999.90
2022-11-29T20:50:23.131Z,1999.90
2022-11-29T20:53:15.285Z,1999.90
2022-11-29T20:55:47.739Z,1999.90
2022-11-29T20:58:14.911Z,1999.90
2022-11-29T21:00:41.389Z,1999.90
2022-11-29T21:03:07.881Z,1999.90
2022-11-29T21:05:37.551Z,1999.90
2022-11-29T21:08:04.131Z,1999.90
2022-11-29T21:10:30.655Z,1999.90
2022-11-29T21:12:57.488Z,1999.90
2022-11-29T21:15:24.176Z,1999.90
2022-11-29T21:17:50.930Z,1999.90
2022-11-29T21:20:22.498Z,1999.90
2022-11-29T21:23:05.839Z,1999.90
2022-11-29T21:25:38.253Z,1999.90
2022-11-29T21:28:07.931Z,1999.90
2022-11-29T21:30:34.639Z,1999.90
2022-11-29T21:33:01.316Z,1999.90
2022-11-29T21:35:28.048Z,1999.90
2022-11-29T21:37:55.578Z,1999.90
2022-11-29T21:40:22.073Z,1999.90
2022-11-29T21:42:48.548Z,1999.90
2022-11-29T21:45:16.052Z,1999.90
2022-11-29T21:47:44.176Z,1999.90
2022-11-29T21:50:11.869Z,1999.90
2022-11-29T21:52:38.352Z,1999.90
2022-11-29T21:55:05.185Z,1999.90
2022-11-29T21:57:31.659Z,1999.90
2022-11-29T21:59:58.131Z,1999.90
2022-11-29T22:02:24.961Z,1999.90
2022-11-29T22:04:51.491Z,1999.90
2022-11-29T22:07:18.003Z,1999.90
2022-11-29T22:09:44.501Z,1999.90
2022-11-29T22:12:32.451Z,1999.90
2022-11-29T22:14:57.673Z,1999.90
2022-11-29T22:17:24.168Z,1999.90
2022-11-29T22:19:50.650Z,1999.90
2022-11-29T22:22:17.164Z,1999.90
2022-11-29T22:24:43.806Z,1999.90
2022-11-29T22:27:10.396Z,1999.90
2022-11-29T22:29:36.982Z,1999.90
2022-11-29T22:32:03.794Z,1999.90
2022-11-29T22:34:30.253Z,1999.90
2022-11-29T22:36:56.731Z,1999.90
2022-11-29T22:39:23.946Z,1999.90
2022-11-29T22:41:54.256Z,1999.90
2022-11-29T22:44:21.378Z,1999.90
2022-11-29T22:46:47.942Z,1999.90
2022-11-29T22:49:14.566Z,1999.90
2022-11-29T22:51:41.026Z,1999.90
2022-11-29T22:54:08.613Z,1999.90
2022-11-29T22:56:36.754Z,1999.90
2022-11-29T22:59:03.718Z,1999.90
2022-11-29T23:01:31.533Z,1999.90
2022-11-29T23:03:59.266Z,1999.90
2022-11-29T23:06:30.617Z,1999.90
2022-11-29T23:09:00.097Z,1999.90
2022-11-29T23:11:28.350Z,1999.90
2022-11-29T23:13:55.159Z,1999.90
2022-11-29T23:16:23.683Z,1999.90
2022-11-29T23:18:50.576Z,1999.90
2022-11-29T23:21:25.081Z,1999.90
2022-11-29T23:23:56.320Z,1999.90
2022-11-29T23:26:25.489Z,1999.90
2022-11-29T23:28:52.503Z,1999.90
2022-11-29T23:31:19.154Z,1999.90
2022-11-29T23:33:45.691Z,1999.90
2022-11-29T23:36:12.272Z,1999.90
2022-11-29T23:38:38.900Z,1999.90
2022-11-29T23:41:05.911Z,1999.90
2022-11-29T23:43:33.330Z,1999.90
2022-11-29T23:45:59.831Z,1999.90
2022-11-29T23:48:26.370Z,1999.90
2022-11-29T23:50:53.160Z,1999.90
2022-11-29T23:53:19.725Z,1999.90
2022-11-29T23:55:49.750Z,1999.90
2022-11-29T23:58:16.234Z,1999.90
